sensor_id;sensor_type;location;lat;lon;timestamp;temperature;humidity
37518;DHT22;23366;52.498;13.446;2023-02-10T00:00:55;2.10;99.90
37518;DHT22;23366;52.498;13.446;2023-02-10T00:03:21;2.10;99.90
37518;DHT22;23366;52.498;13.446;2023-02-10T00:05:47;2.10;99.90
37518;DHT22;23366;52.498;13.446;2023-02-10T00:08:12;2.10;99.90
37518;DHT22;23366;52.498;13.446;2023-02-10T00:10:38;2.10;99.90
37518;DHT22;23366;52.498;13.446;2023-02-10T00:13:03;2.20;99.90
37518;DHT22;23366;52.498;13.446;2023-02-10T00:15:29;2.20;99.90
37518;DHT22;23366;52.498;13.446;2023-02-10T00:17:54;2.20;99.90
37518;DHT22;23366;52.498;13.446;2023-02-10T00:20:20;2.20;99.90
37518;DHT22;23366;52.498;13.446;2023-02-10T00:22:45;2.20;99.90
37518;DHT22;23366;52.498;13.446;2023-02-10T00:25:10;2.20;99.90
37518;DHT22;23366;52.498;13.446;2023-02-10T00:27:37;2.20;99.90
37518;DHT22;23366;52.498;13.446;2023-02-10T00:30:03;2.20;99.90
37518;DHT22;23366;52.498;13.446;2023-02-10T00:32:28;2.20;99.90
37518;DHT22;23366;52.498;13.446;2023-02-10T00:34:53;2.20;99.90
37518;DHT22;23366;52.498;13.446;2023-02-10T00:37:19;2.20;99.90
37518;DHT22;23366;52.498;13.446;2023-02-10T00:39:45;2.20;99.90
37518;DHT22;23366;52.498;13.446;2023-02-10T00:42:11;2.10;99.90
37518;DHT22;23366;52.498;13.446;2023-02-10T00:44:36;2.10;99.90
37518;DHT22;23366;52.498;13.446;2023-02-10T00:47:02;2.10;99.90
37518;DHT22;23366;52.498;13.446;2023-02-10T00:49:27;2.10;99.90
37518;DHT22;23366;52.498;13.446;2023-02-10T00:51:53;2.10;99.90
37518;DHT22;23366;52.498;13.446;2023-02-10T00:54:18;2.20;99.90
37518;DHT22;23366;52.498;13.446;2023-02-10T00:56:44;2.20;99.90
37518;DHT22;23366;52.498;13.446;2023-02-10T00:59:12;2.20;99.90
37518;DHT22;23366;52.498;13.446;2023-02-10T01:01:38;2.30;99.90
37518;DHT22;23366;52.498;13.446;2023-02-10T01:04:04;2.30;99.90
37518;DHT22;23366;52.498;13.446;2023-02-10T01:06:30;2.30;99.90
37518;DHT22;23366;52.498;13.446;2023-02-10T01:08:55;2.30;99.90
37518;DHT22;23366;52.498;13.446;2023-02-10T01:11:21;2.30;99.90
37518;DHT22;23366;52.498;13.446;2023-02-10T01:13:46;2.30;99.90
37518;DHT22;23366;52.498;13.446;2023-02-10T01:16:14;2.30;99.90
37518;DHT22;23366;52.498;13.446;2023-02-10T01:18:42;2.40;99.90
37518;DHT22;23366;52.498;13.446;2023-02-10T01:21:14;2.40;99.90
37518;DHT22;23366;52.498;13.446;2023-02-10T01:23:39;2.40;99.90
37518;DHT22;23366;52.498;13.446;2023-02-10T01:26:07;2.30;99.90
37518;DHT22;23366;52.498;13.446;2023-02-10T01:28:33;2.20;99.90
37518;DHT22;23366;52.498;13.446;2023-02-10T01:31:03;2.10;99.90
37518;DHT22;23366;52.498;13.446;2023-02-10T01:33:29;2.00;99.90
37518;DHT22;23366;52.498;13.446;2023-02-10T01:35:54;2.00;99.90
37518;DHT22;23366;52.498;13.446;2023-02-10T01:38:19;1.90;99.90
37518;DHT22;23366;52.498;13.446;2023-02-10T01:40:48;1.90;99.90
37518;DHT22;23366;52.498;13.446;2023-02-10T01:43:15;1.90;99.90
37518;DHT22;23366;52.498;13.446;2023-02-10T01:45:40;1.80;99.90
37518;DHT22;23366;52.498;13.446;2023-02-10T01:48:08;1.80;99.90
37518;DHT22;23366;52.498;13.446;2023-02-10T01:50:58;1.70;99.90
37518;DHT22;23366;52.498;13.446;2023-02-10T01:53:26;1.70;99.90
37518;DHT22;23366;52.498;13.446;2023-02-10T01:55:57;1.70;99.90
37518;DHT22;23366;52.498;13.446;2023-02-10T01:58:26;1.60;99.90
37518;DHT22;23366;52.498;13.446;2023-02-10T02:00:53;1.70;99.90
37518;DHT22;23366;52.498;13.446;2023-02-10T02:03:18;1.60;99.90
37518;DHT22;23366;52.498;13.446;2023-02-10T02:05:44;1.60;99.90
37518;DHT22;23366;52.498;13.446;2023-02-10T02:08:11;1.60;99.90
37518;DHT22;23366;52.498;13.446;2023-02-10T02:10:56;1.60;99.90
37518;DHT22;23366;52.498;13.446;2023-02-10T02:16:22;1.60;99.90
37518;DHT22;23366;52.498;13.446;2023-02-10T02:19:37;1.50;99.90
37518;DHT22;23366;52.498;13.446;2023-02-10T02:24:52;1.50;99.90
37518;DHT22;23366;52.498;13.446;2023-02-10T02:30:52;1.40;99.90
37518;DHT22;23366;52.498;13.446;2023-02-10T02:33:27;1.40;99.90
37518;DHT22;23366;52.498;13.446;2023-02-10T02:36:10;1.40;99.90
37518;DHT22;23366;52.498;13.446;2023-02-10T02:38:40;1.40;99.90
37518;DHT22;23366;52.498;13.446;2023-02-10T02:41:07;1.40;99.90
37518;DHT22;23366;52.498;13.446;2023-02-10T02:43:33;1.40;99.90
37518;DHT22;23366;52.498;13.446;2023-02-10T02:49:13;1.30;99.90
37518;DHT22;23366;52.498;13.446;2023-02-10T02:52:05;1.30;99.90
37518;DHT22;23366;52.498;13.446;2023-02-10T02:54:59;1.30;99.90
37518;DHT22;23366;52.498;13.446;2023-02-10T02:57:50;1.30;99.90
37518;DHT22;23366;52.498;13.446;2023-02-10T03:00:22;1.40;99.90
37518;DHT22;23366;52.498;13.446;2023-02-10T03:02:49;1.40;99.90
37518;DHT22;23366;52.498;13.446;2023-02-10T03:05:20;1.40;99.90
37518;DHT22;23366;52.498;13.446;2023-02-10T03:07:46;1.40;99.90
37518;DHT22;23366;52.498;13.446;2023-02-10T03:10:13;1.40;99.90
37518;DHT22;23366;52.498;13.446;2023-02-10T03:12:38;1.40;99.90
37518;DHT22;23366;52.498;13.446;2023-02-10T03:15:04;1.40;99.90
37518;DHT22;23366;52.498;13.446;2023-02-10T03:17:29;1.40;99.90
37518;DHT22;23366;52.498;13.446;2023-02-10T03:19:55;1.40;99.90
37518;DHT22;23366;52.498;13.446;2023-02-10T03:22:20;1.40;99.90
37518;DHT22;23366;52.498;13.446;2023-02-10T03:24:46;1.40;99.90
37518;DHT22;23366;52.498;13.446;2023-02-10T03:27:11;1.40;99.90
37518;DHT22;23366;52.498;13.446;2023-02-10T03:29:37;1.40;99.90
37518;DHT22;23366;52.498;13.446;2023-02-10T03:32:02;1.50;99.90
37518;DHT22;23366;52.498;13.446;2023-02-10T03:34:30;1.40;99.90
37518;DHT22;23366;52.498;13.446;2023-02-10T03:36:56;1.50;99.90
37518;DHT22;23366;52.498;13.446;2023-02-10T03:39:22;1.50;99.90
37518;DHT22;23366;52.498;13.446;2023-02-10T03:41:48;1.50;99.90
37518;DHT22;23366;52.498;13.446;2023-02-10T03:44:13;1.50;99.90
37518;DHT22;23366;52.498;13.446;2023-02-10T03:46:38;1.50;99.90
37518;DHT22;23366;52.498;13.446;2023-02-10T03:49:05;1.50;99.90
37518;DHT22;23366;52.498;13.446;2023-02-10T03:51:31;1.60;99.90
37518;DHT22;23366;52.498;13.446;2023-02-10T03:53:56;1.60;99.90
37518;DHT22;23366;52.498;13.446;2023-02-10T03:56:22;1.60;99.90
37518;DHT22;23366;52.498;13.446;2023-02-10T03:58:47;1.70;99.90
37518;DHT22;23366;52.498;13.446;2023-02-10T04:01:15;1.70;99.90
37518;DHT22;23366;52.498;13.446;2023-02-10T04:03:41;1.70;99.90
37518;DHT22;23366;52.498;13.446;2023-02-10T04:06:07;1.80;99.90
37518;DHT22;23366;52.498;13.446;2023-02-10T04:08:33;1.80;99.90
37518;DHT22;23366;52.498;13.446;2023-02-10T04:10:59;1.80;99.90
37518;DHT22;23366;52.498;13.446;2023-02-10T04:13:24;1.80;99.90
37518;DHT22;23366;52.498;13.446;2023-02-10T04:16:00;1.90;99.90
37518;DHT22;23366;52.498;13.446;2023-02-10T04:18:26;1.90;99.90
37518;DHT22;23366;52.498;13.446;2023-02-10T04:20:51;1.90;99.90
37518;DHT22;23366;52.498;13.446;2023-02-10T04:23:17;1.90;99.90
37518;DHT22;23366;52.498;13.446;2023-02-10T04:25:42;2.00;99.90
37518;DHT22;23366;52.498;13.446;2023-02-10T04:28:07;2.00;99.90
37518;DHT22;23366;52.498;13.446;2023-02-10T04:30:33;1.90;99.90
37518;DHT22;23366;52.498;13.446;2023-02-10T04:32:59;1.90;99.90
37518;DHT22;23366;52.498;13.446;2023-02-10T04:35:24;1.90;99.90
37518;DHT22;23366;52.498;13.446;2023-02-10T04:37:50;1.90;99.90
37518;DHT22;23366;52.498;13.446;2023-02-10T04:40:15;1.90;99.90
37518;DHT22;23366;52.498;13.446;2023-02-10T04:42:41;2.00;99.90
37518;DHT22;23366;52.498;13.446;2023-02-10T04:45:07;2.00;99.90
37518;DHT22;23366;52.498;13.446;2023-02-10T04:47:32;2.00;99.90
37518;DHT22;23366;52.498;13.446;2023-02-10T04:49:58;2.10;99.90
37518;DHT22;23366;52.498;13.446;2023-02-10T04:52:23;2.00;99.90
37518;DHT22;23366;52.498;13.446;2023-02-10T04:54:49;2.10;99.90
37518;DHT22;23366;52.498;13.446;2023-02-10T04:57:14;2.10;99.90
37518;DHT22;23366;52.498;13.446;2023-02-10T04:59:40;2.10;99.90
37518;DHT22;23366;52.498;13.446;2023-02-10T05:02:05;2.10;99.90
37518;DHT22;23366;52.498;13.446;2023-02-10T05:04:31;2.20;99.90
37518;DHT22;23366;52.498;13.446;2023-02-10T05:06:56;2.10;99.90
37518;DHT22;23366;52.498;13.446;2023-02-10T05:09:24;2.20;99.90
37518;DHT22;23366;52.498;13.446;2023-02-10T05:11:50;2.20;99.90
37518;DHT22;23366;52.498;13.446;2023-02-10T05:14:15;2.20;99.90
37518;DHT22;23366;52.498;13.446;2023-02-10T05:16:41;2.30;99.90
37518;DHT22;23366;52.498;13.446;2023-02-10T05:19:06;2.20;99.90
37518;DHT22;23366;52.498;13.446;2023-02-10T05:21:33;2.20;99.90
37518;DHT22;23366;52.498;13.446;2023-02-10T05:23:59;2.30;99.90
37518;DHT22;23366;52.498;13.446;2023-02-10T05:26:24;2.20;99.90
37518;DHT22;23366;52.498;13.446;2023-02-10T05:28:50;2.20;99.90
37518;DHT22;23366;52.498;13.446;2023-02-10T05:31:15;2.30;99.90
37518;DHT22;23366;52.498;13.446;2023-02-10T05:33:41;2.30;99.90
37518;DHT22;23366;52.498;13.446;2023-02-10T05:36:07;2.30;99.90
37518;DHT22;23366;52.498;13.446;2023-02-10T05:38:32;2.40;99.90
37518;DHT22;23366;52.498;13.446;2023-02-10T05:40:58;2.40;99.90
37518;DHT22;23366;52.498;13.446;2023-02-10T05:43:24;2.40;99.90
37518;DHT22;23366;52.498;13.446;2023-02-10T05:45:49;2.40;99.90
37518;DHT22;23366;52.498;13.446;2023-02-10T05:48:15;2.30;99.90
37518;DHT22;23366;52.498;13.446;2023-02-10T05:50:40;2.20;99.90
37518;DHT22;23366;52.498;13.446;2023-02-10T05:53:06;2.20;99.90
37518;DHT22;23366;52.498;13.446;2023-02-10T05:55:32;2.10;99.90
37518;DHT22;23366;52.498;13.446;2023-02-10T05:57:57;2.10;99.90
37518;DHT22;23366;52.498;13.446;2023-02-10T06:00:23;2.00;99.90
37518;DHT22;23366;52.498;13.446;2023-02-10T06:02:49;2.00;99.90
37518;DHT22;23366;52.498;13.446;2023-02-10T06:05:14;1.90;99.90
37518;DHT22;23366;52.498;13.446;2023-02-10T06:07:40;1.90;99.90
37518;DHT22;23366;52.498;13.446;2023-02-10T06:10:06;1.80;99.90
37518;DHT22;23366;52.498;13.446;2023-02-10T06:12:32;1.90;99.90
37518;DHT22;23366;52.498;13.446;2023-02-10T06:14:58;1.80;99.90
37518;DHT22;23366;52.498;13.446;2023-02-10T06:17:24;1.80;99.90
37518;DHT22;23366;52.498;13.446;2023-02-10T06:19:51;1.80;99.90
37518;DHT22;23366;52.498;13.446;2023-02-10T06:22:17;1.80;99.90
37518;DHT22;23366;52.498;13.446;2023-02-10T06:24:43;1.80;99.90
37518;DHT22;23366;52.498;13.446;2023-02-10T06:27:08;1.80;99.90
37518;DHT22;23366;52.498;13.446;2023-02-10T06:29:34;1.80;99.90
37518;DHT22;23366;52.498;13.446;2023-02-10T06:31:59;1.80;99.90
37518;DHT22;23366;52.498;13.446;2023-02-10T06:34:25;1.80;99.90
37518;DHT22;23366;52.498;13.446;2023-02-10T06:36:50;1.80;99.90
37518;DHT22;23366;52.498;13.446;2023-02-10T06:39:16;1.80;99.90
37518;DHT22;23366;52.498;13.446;2023-02-10T06:41:41;1.80;99.90
37518;DHT22;23366;52.498;13.446;2023-02-10T06:44:07;1.80;99.90
37518;DHT22;23366;52.498;13.446;2023-02-10T06:46:33;1.80;99.90
37518;DHT22;23366;52.498;13.446;2023-02-10T06:48:59;1.80;99.90
37518;DHT22;23366;52.498;13.446;2023-02-10T06:51:25;1.80;99.90
37518;DHT22;23366;52.498;13.446;2023-02-10T06:53:51;1.80;99.90
37518;DHT22;23366;52.498;13.446;2023-02-10T06:56:16;1.90;99.90
37518;DHT22;23366;52.498;13.446;2023-02-10T06:58:42;1.90;99.90
37518;DHT22;23366;52.498;13.446;2023-02-10T07:01:08;2.00;99.90
37518;DHT22;23366;52.498;13.446;2023-02-10T07:03:34;2.00;99.90
37518;DHT22;23366;52.498;13.446;2023-02-10T07:06:00;2.10;99.90
37518;DHT22;23366;52.498;13.446;2023-02-10T07:08:25;2.10;99.90
37518;DHT22;23366;52.498;13.446;2023-02-10T07:10:51;2.20;99.90
37518;DHT22;23366;52.498;13.446;2023-02-10T07:13:16;2.30;99.90
37518;DHT22;23366;52.498;13.446;2023-02-10T07:15:42;2.30;99.90
37518;DHT22;23366;52.498;13.446;2023-02-10T07:18:07;2.40;99.90
37518;DHT22;23366;52.498;13.446;2023-02-10T07:20:33;2.40;99.90
37518;DHT22;23366;52.498;13.446;2023-02-10T07:22:58;2.50;99.90
37518;DHT22;23366;52.498;13.446;2023-02-10T07:25:24;2.50;99.90
37518;DHT22;23366;52.498;13.446;2023-02-10T07:27:49;2.60;99.90
37518;DHT22;23366;52.498;13.446;2023-02-10T07:30:15;2.60;99.90
37518;DHT22;23366;52.498;13.446;2023-02-10T07:32:40;2.80;99.90
37518;DHT22;23366;52.498;13.446;2023-02-10T07:35:08;2.90;99.90
37518;DHT22;23366;52.498;13.446;2023-02-10T07:37:34;3.00;99.90
37518;DHT22;23366;52.498;13.446;2023-02-10T07:40:00;3.20;99.90
37518;DHT22;23366;52.498;13.446;2023-02-10T07:42:25;3.20;99.90
37518;DHT22;23366;52.498;13.446;2023-02-10T07:44:51;3.50;99.90
37518;DHT22;23366;52.498;13.446;2023-02-10T07:47:16;3.80;99.90
37518;DHT22;23366;52.498;13.446;2023-02-10T07:49:42;3.90;99.90
37518;DHT22;23366;52.498;13.446;2023-02-10T07:52:07;4.00;99.90
37518;DHT22;23366;52.498;13.446;2023-02-10T07:54:33;4.10;99.90
37518;DHT22;23366;52.498;13.446;2023-02-10T07:56:59;4.00;99.90
37518;DHT22;23366;52.498;13.446;2023-02-10T07:59:24;4.00;99.90
37518;DHT22;23366;52.498;13.446;2023-02-10T08:01:50;4.00;99.90
37518;DHT22;23366;52.498;13.446;2023-02-10T08:04:15;4.00;99.90
37518;DHT22;23366;52.498;13.446;2023-02-10T08:06:41;4.10;99.90
37518;DHT22;23366;52.498;13.446;2023-02-10T08:09:07;4.10;99.90
37518;DHT22;23366;52.498;13.446;2023-02-10T08:11:32;4.10;99.90
37518;DHT22;23366;52.498;13.446;2023-02-10T08:13:58;4.10;99.90
37518;DHT22;23366;52.498;13.446;2023-02-10T08:16:24;4.10;99.90
37518;DHT22;23366;52.498;13.446;2023-02-10T08:18:49;4.20;99.90
37518;DHT22;23366;52.498;13.446;2023-02-10T08:21:15;4.40;99.90
37518;DHT22;23366;52.498;13.446;2023-02-10T08:23:40;4.60;99.90
37518;DHT22;23366;52.498;13.446;2023-02-10T08:26:10;4.60;99.90
37518;DHT22;23366;52.498;13.446;2023-02-10T08:28:37;4.80;99.90
37518;DHT22;23366;52.498;13.446;2023-02-10T08:31:05;4.70;99.90
37518;DHT22;23366;52.498;13.446;2023-02-10T08:33:34;4.70;99.90
37518;DHT22;23366;52.498;13.446;2023-02-10T08:36:07;4.80;99.90
37518;DHT22;23366;52.498;13.446;2023-02-10T08:38:33;5.00;99.90
37518;DHT22;23366;52.498;13.446;2023-02-10T08:40:59;5.10;99.90
37518;DHT22;23366;52.498;13.446;2023-02-10T08:43:25;5.10;99.90
37518;DHT22;23366;52.498;13.446;2023-02-10T08:45:50;5.30;99.90
37518;DHT22;23366;52.498;13.446;2023-02-10T08:48:17;5.30;99.90
37518;DHT22;23366;52.498;13.446;2023-02-10T08:50:43;5.40;99.90
37518;DHT22;23366;52.498;13.446;2023-02-10T08:53:08;5.70;99.90
37518;DHT22;23366;52.498;13.446;2023-02-10T08:55:35;5.60;99.90
37518;DHT22;23366;52.498;13.446;2023-02-10T08:58:01;5.80;99.90
37518;DHT22;23366;52.498;13.446;2023-02-10T09:00:26;5.90;99.90
37518;DHT22;23366;52.498;13.446;2023-02-10T09:02:52;6.00;99.90
37518;DHT22;23366;52.498;13.446;2023-02-10T09:05:17;6.00;99.90
37518;DHT22;23366;52.498;13.446;2023-02-10T09:07:44;6.00;99.90
37518;DHT22;23366;52.498;13.446;2023-02-10T09:10:11;6.10;99.90
37518;DHT22;23366;52.498;13.446;2023-02-10T09:12:40;6.10;99.90
37518;DHT22;23366;52.498;13.446;2023-02-10T09:15:07;6.10;99.90
37518;DHT22;23366;52.498;13.446;2023-02-10T09:17:33;6.10;99.90
37518;DHT22;23366;52.498;13.446;2023-02-10T09:19:59;6.10;99.90
37518;DHT22;23366;52.498;13.446;2023-02-10T09:22:25;6.10;99.90
37518;DHT22;23366;52.498;13.446;2023-02-10T09:24:50;6.10;99.90
37518;DHT22;23366;52.498;13.446;2023-02-10T09:27:18;6.00;99.90
37518;DHT22;23366;52.498;13.446;2023-02-10T09:29:44;6.20;99.90
37518;DHT22;23366;52.498;13.446;2023-02-10T09:32:10;6.20;99.90
37518;DHT22;23366;52.498;13.446;2023-02-10T09:34:36;6.10;99.90
37518;DHT22;23366;52.498;13.446;2023-02-10T09:37:01;5.90;99.90
37518;DHT22;23366;52.498;13.446;2023-02-10T09:39:28;5.80;99.90
37518;DHT22;23366;52.498;13.446;2023-02-10T09:41:57;5.90;99.90
37518;DHT22;23366;52.498;13.446;2023-02-10T09:44:26;6.00;99.90
37518;DHT22;23366;52.498;13.446;2023-02-10T09:47:03;6.10;99.90
37518;DHT22;23366;52.498;13.446;2023-02-10T09:52:41;6.00;99.90
37518;DHT22;23366;52.498;13.446;2023-02-10T10:01:23;6.20;99.90
37518;DHT22;23366;52.498;13.446;2023-02-10T10:04:10;6.10;99.90
37518;DHT22;23366;52.498;13.446;2023-02-10T10:06:40;6.20;99.90
37518;DHT22;23366;52.498;13.446;2023-02-10T10:11:47;6.20;99.90
37518;DHT22;23366;52.498;13.446;2023-02-10T10:14:18;6.20;99.90
37518;DHT22;23366;52.498;13.446;2023-02-10T10:17:06;6.10;99.90
37518;DHT22;23366;52.498;13.446;2023-02-10T10:26:07;6.20;99.90
37518;DHT22;23366;52.498;13.446;2023-02-10T10:33:10;6.40;99.90
37518;DHT22;23366;52.498;13.446;2023-02-10T10:35:42;6.50;99.90
37518;DHT22;23366;52.498;13.446;2023-02-10T10:38:33;6.50;99.90
37518;DHT22;23366;52.498;13.446;2023-02-10T10:41:06;6.60;99.90
37518;DHT22;23366;52.498;13.446;2023-02-10T10:43:47;6.70;99.90
37518;DHT22;23366;52.498;13.446;2023-02-10T10:46:23;6.60;99.90
37518;DHT22;23366;52.498;13.446;2023-02-10T10:48:50;6.60;99.90
37518;DHT22;23366;52.498;13.446;2023-02-10T10:51:16;6.60;99.90
37518;DHT22;23366;52.498;13.446;2023-02-10T10:53:46;6.70;99.90
37518;DHT22;23366;52.498;13.446;2023-02-10T10:56:17;6.60;99.90
37518;DHT22;23366;52.498;13.446;2023-02-10T10:58:45;6.60;99.90
37518;DHT22;23366;52.498;13.446;2023-02-10T11:01:14;6.70;99.90
37518;DHT22;23366;52.498;13.446;2023-02-10T11:03:40;6.60;99.90
37518;DHT22;23366;52.498;13.446;2023-02-10T11:06:09;6.70;99.90
37518;DHT22;23366;52.498;13.446;2023-02-10T11:08:43;6.60;99.90
37518;DHT22;23366;52.498;13.446;2023-02-10T11:11:12;6.50;99.90
37518;DHT22;23366;52.498;13.446;2023-02-10T11:13:40;6.50;99.90
37518;DHT22;23366;52.498;13.446;2023-02-10T11:16:10;6.60;99.90
37518;DHT22;23366;52.498;13.446;2023-02-10T11:18:37;6.70;99.90
37518;DHT22;23366;52.498;13.446;2023-02-10T11:21:08;6.50;99.90
37518;DHT22;23366;52.498;13.446;2023-02-10T11:23:35;6.40;99.90
37518;DHT22;23366;52.498;13.446;2023-02-10T11:26:15;6.40;99.90
37518;DHT22;23366;52.498;13.446;2023-02-10T11:28:41;6.40;99.90
37518;DHT22;23366;52.498;13.446;2023-02-10T11:31:23;6.30;99.90
37518;DHT22;23366;52.498;13.446;2023-02-10T11:34:19;6.40;99.90
37518;DHT22;23366;52.498;13.446;2023-02-10T11:36:46;6.60;99.90
37518;DHT22;23366;52.498;13.446;2023-02-10T11:39:23;6.60;99.90
37518;DHT22;23366;52.498;13.446;2023-02-10T11:41:50;6.70;99.90
37518;DHT22;23366;52.498;13.446;2023-02-10T11:44:30;6.90;99.90
37518;DHT22;23366;52.498;13.446;2023-02-10T11:47:03;6.90;99.90
37518;DHT22;23366;52.498;13.446;2023-02-10T11:49:30;6.80;99.90
37518;DHT22;23366;52.498;13.446;2023-02-10T11:52:00;6.70;99.90
37518;DHT22;23366;52.498;13.446;2023-02-10T11:54:26;6.70;99.90
37518;DHT22;23366;52.498;13.446;2023-02-10T11:57:25;6.60;99.90
37518;DHT22;23366;52.498;13.446;2023-02-10T12:00:32;6.50;99.90
37518;DHT22;23366;52.498;13.446;2023-02-10T12:14:28;6.70;99.90
37518;DHT22;23366;52.498;13.446;2023-02-10T12:20:25;6.70;99.90
37518;DHT22;23366;52.498;13.446;2023-02-10T12:23:18;6.60;99.90
37518;DHT22;23366;52.498;13.446;2023-02-10T12:37:48;6.80;99.90
37518;DHT22;23366;52.498;13.446;2023-02-10T12:40:44;6.90;99.90
37518;DHT22;23366;52.498;13.446;2023-02-10T12:43:39;7.00;99.90
37518;DHT22;23366;52.498;13.446;2023-02-10T12:46:22;7.00;99.90
37518;DHT22;23366;52.498;13.446;2023-02-10T12:51:29;7.20;99.90
37518;DHT22;23366;52.498;13.446;2023-02-10T12:56:53;7.40;99.90
37518;DHT22;23366;52.498;13.446;2023-02-10T12:59:26;7.40;99.90
37518;DHT22;23366;52.498;13.446;2023-02-10T13:02:02;7.40;99.90
37518;DHT22;23366;52.498;13.446;2023-02-10T13:04:32;7.50;99.90
37518;DHT22;23366;52.498;13.446;2023-02-10T13:07:07;7.40;99.90
37518;DHT22;23366;52.498;13.446;2023-02-10T13:09:57;7.20;99.90
37518;DHT22;23366;52.498;13.446;2023-02-10T13:12:28;7.10;99.90
37518;DHT22;23366;52.498;13.446;2023-02-10T13:15:11;7.10;99.90
37518;DHT22;23366;52.498;13.446;2023-02-10T13:17:43;7.00;99.90
37518;DHT22;23366;52.498;13.446;2023-02-10T13:22:53;7.10;99.90
37518;DHT22;23366;52.498;13.446;2023-02-10T13:25:45;7.10;99.90
37518;DHT22;23366;52.498;13.446;2023-02-10T13:28:22;7.20;99.90
37518;DHT22;23366;52.498;13.446;2023-02-10T13:31:17;7.30;99.90
37518;DHT22;23366;52.498;13.446;2023-02-10T13:36:47;7.30;99.90
37518;DHT22;23366;52.498;13.446;2023-02-10T13:39:20;7.40;99.90
37518;DHT22;23366;52.498;13.446;2023-02-10T13:41:47;7.30;99.90
37518;DHT22;23366;52.498;13.446;2023-02-10T13:44:29;7.20;99.90
37518;DHT22;23366;52.498;13.446;2023-02-10T13:47:27;7.10;99.90
37518;DHT22;23366;52.498;13.446;2023-02-10T13:49:56;7.10;99.90
37518;DHT22;23366;52.498;13.446;2023-02-10T13:52:27;7.10;99.90
37518;DHT22;23366;52.498;13.446;2023-02-10T13:55:03;7.00;99.90
37518;DHT22;23366;52.498;13.446;2023-02-10T14:00:24;7.00;99.90
37518;DHT22;23366;52.498;13.446;2023-02-10T14:05:50;7.10;99.90
37518;DHT22;23366;52.498;13.446;2023-02-10T14:13:39;7.30;99.90
37518;DHT22;23366;52.498;13.446;2023-02-10T14:16:27;7.20;99.90
37518;DHT22;23366;52.498;13.446;2023-02-10T14:19:04;7.20;99.90
37518;DHT22;23366;52.498;13.446;2023-02-10T14:21:39;7.20;99.90
37518;DHT22;23366;52.498;13.446;2023-02-10T14:24:12;7.20;99.90
37518;DHT22;23366;52.498;13.446;2023-02-10T14:26:42;7.10;99.90
37518;DHT22;23366;52.498;13.446;2023-02-10T14:29:19;7.20;99.90
37518;DHT22;23366;52.498;13.446;2023-02-10T14:31:49;7.10;99.90
37518;DHT22;23366;52.498;13.446;2023-02-10T14:34:18;7.00;99.90
37518;DHT22;23366;52.498;13.446;2023-02-10T14:36:57;6.90;99.90
37518;DHT22;23366;52.498;13.446;2023-02-10T14:39:26;6.90;99.90
37518;DHT22;23366;52.498;13.446;2023-02-10T14:41:58;6.90;99.90
37518;DHT22;23366;52.498;13.446;2023-02-10T14:44:44;7.00;99.90
37518;DHT22;23366;52.498;13.446;2023-02-10T14:47:20;7.00;99.90
37518;DHT22;23366;52.498;13.446;2023-02-10T14:49:49;7.00;99.90
37518;DHT22;23366;52.498;13.446;2023-02-10T14:52:26;7.00;99.90
37518;DHT22;23366;52.498;13.446;2023-02-10T14:54:52;7.00;99.90
37518;DHT22;23366;52.498;13.446;2023-02-10T14:57:20;7.10;99.90
37518;DHT22;23366;52.498;13.446;2023-02-10T14:59:58;7.10;99.90
37518;DHT22;23366;52.498;13.446;2023-02-10T15:02:26;7.00;99.90
37518;DHT22;23366;52.498;13.446;2023-02-10T15:04:55;7.00;99.90
37518;DHT22;23366;52.498;13.446;2023-02-10T15:07:28;6.90;99.90
37518;DHT22;23366;52.498;13.446;2023-02-10T15:09:58;6.80;99.90
37518;DHT22;23366;52.498;13.446;2023-02-10T15:12:25;6.70;99.90
37518;DHT22;23366;52.498;13.446;2023-02-10T15:15:27;6.60;99.90
37518;DHT22;23366;52.498;13.446;2023-02-10T15:18:29;6.40;99.90
37518;DHT22;23366;52.498;13.446;2023-02-10T15:20:56;6.30;99.90
37518;DHT22;23366;52.498;13.446;2023-02-10T15:23:22;6.30;99.90
37518;DHT22;23366;52.498;13.446;2023-02-10T15:25:59;6.20;99.90
37518;DHT22;23366;52.498;13.446;2023-02-10T15:28:27;6.20;99.90
37518;DHT22;23366;52.498;13.446;2023-02-10T15:33:37;6.10;99.90
37518;DHT22;23366;52.498;13.446;2023-02-10T15:38:45;6.00;99.90
37518;DHT22;23366;52.498;13.446;2023-02-10T15:41:34;5.90;99.90
37518;DHT22;23366;52.498;13.446;2023-02-10T15:44:02;5.90;99.90
37518;DHT22;23366;52.498;13.446;2023-02-10T15:46:29;5.80;99.90
37518;DHT22;23366;52.498;13.446;2023-02-10T15:49:06;5.70;99.90
37518;DHT22;23366;52.498;13.446;2023-02-10T15:51:37;5.60;99.90
37518;DHT22;23366;52.498;13.446;2023-02-10T15:54:03;5.50;99.90
37518;DHT22;23366;52.498;13.446;2023-02-10T15:56:29;5.40;99.90
37518;DHT22;23366;52.498;13.446;2023-02-10T15:58:54;5.40;99.90
37518;DHT22;23366;52.498;13.446;2023-02-10T16:01:20;5.30;99.90
37518;DHT22;23366;52.498;13.446;2023-02-10T16:03:45;5.30;99.90
37518;DHT22;23366;52.498;13.446;2023-02-10T16:06:16;5.20;99.90
37518;DHT22;23366;52.498;13.446;2023-02-10T16:08:42;5.20;99.90
37518;DHT22;23366;52.498;13.446;2023-02-10T16:11:12;5.10;99.90
37518;DHT22;23366;52.498;13.446;2023-02-10T16:13:38;5.10;99.90
37518;DHT22;23366;52.498;13.446;2023-02-10T16:16:05;5.10;99.90
37518;DHT22;23366;52.498;13.446;2023-02-10T16:18:35;5.10;99.90
37518;DHT22;23366;52.498;13.446;2023-02-10T16:21:00;5.00;99.90
37518;DHT22;23366;52.498;13.446;2023-02-10T16:23:28;5.00;99.90
37518;DHT22;23366;52.498;13.446;2023-02-10T16:25:55;4.90;99.90
37518;DHT22;23366;52.498;13.446;2023-02-10T16:28:21;5.00;99.90
37518;DHT22;23366;52.498;13.446;2023-02-10T16:30:46;4.90;99.90
37518;DHT22;23366;52.498;13.446;2023-02-10T16:33:12;4.90;99.90
37518;DHT22;23366;52.498;13.446;2023-02-10T16:35:38;4.90;99.90
37518;DHT22;23366;52.498;13.446;2023-02-10T16:38:04;4.80;99.90
37518;DHT22;23366;52.498;13.446;2023-02-10T16:40:33;4.80;99.90
37518;DHT22;23366;52.498;13.446;2023-02-10T16:43:00;4.80;99.90
37518;DHT22;23366;52.498;13.446;2023-02-10T16:45:27;4.70;99.90
37518;DHT22;23366;52.498;13.446;2023-02-10T16:47:55;4.70;99.90
37518;DHT22;23366;52.498;13.446;2023-02-10T16:52:56;4.60;99.90
37518;DHT22;23366;52.498;13.446;2023-02-10T16:55:21;4.60;99.90
37518;DHT22;23366;52.498;13.446;2023-02-10T16:57:47;4.60;99.90
37518;DHT22;23366;52.498;13.446;2023-02-10T17:00:15;4.50;99.90
37518;DHT22;23366;52.498;13.446;2023-02-10T17:02:41;4.50;99.90
37518;DHT22;23366;52.498;13.446;2023-02-10T17:05:08;4.50;99.90
37518;DHT22;23366;52.498;13.446;2023-02-10T17:07:34;4.40;99.90
37518;DHT22;23366;52.498;13.446;2023-02-10T17:10:00;4.40;99.90
37518;DHT22;23366;52.498;13.446;2023-02-10T17:12:25;4.40;99.90
37518;DHT22;23366;52.498;13.446;2023-02-10T17:14:51;4.40;99.90